Time;durP1;ratioP1;P1;durP2;ratioP2;P2;SDS_P1;SDS_P2;PMS_P1;PMS_P2;Temp;Humidity;BMP_temperature;BMP_pressure;BME280_temperature;BME280_humidity;BME280_pressure;Samples;Min_cycle;Max_cycle;Signal;HPM_P1;HPM_P2
2024/04/01 00:01:16;;;;;;;1.95;0.20;;;10.70;99.90;;;;;;5010655;28;20480;-41
2024/04/01 00:03:41;;;;;;;1.00;0.20;;;10.80;99.90;;;;;;5011771;28;20492;-41
2024/04/01 00:06:07;;;;;;;3.80;0.30;;;10.70;99.90;;;;;;5008508;28;20555;-44
2024/04/01 00:08:33;;;;;;;0.88;0.20;;;10.60;99.90;;;;;;5007765;28;20508;-45
2024/04/01 00:10:58;;;;;;;3.80;0.20;;;10.60;99.90;;;;;;5004790;28;20033;-44
2024/04/01 00:13:24;;;;;;;1.45;0.22;;;10.60;99.90;;;;;;5004754;28;20528;-41
2024/04/01 00:15:49;;;;;;;1.40;0.30;;;10.60;99.90;;;;;;5008365;28;20033;-41
2024/04/01 00:18:15;;;;;;;1.25;0.30;;;10.50;99.90;;;;;;5004866;28;20516;-43
2024/04/01 00:20:40;;;;;;;1.20;0.30;;;10.50;99.90;;;;;;5009133;28;20032;-42
2024/04/01 00:23:06;;;;;;;1.95;0.75;;;10.40;99.90;;;;;;5012440;28;20026;-41
2024/04/01 00:25:32;;;;;;;1.20;0.40;;;10.40;99.90;;;;;;5006737;28;20053;-41
2024/04/01 00:27:58;;;;;;;1.77;0.20;;;10.40;99.90;;;;;;5007141;28;20018;-40
2024/04/01 00:30:24;;;;;;;2.17;0.20;;;10.30;99.90;;;;;;5006113;28;20026;-41
2024/04/01 00:32:50;;;;;;;1.48;0.20;;;10.30;99.90;;;;;;5006638;28;20762;-41
2024/04/01 00:35:17;;;;;;;1.35;0.20;;;10.30;99.90;;;;;;5007726;28;20037;-44
2024/04/01 00:37:42;;;;;;;0.50;0.20;;;10.30;99.90;;;;;;5009363;28;20072;-41
2024/04/01 00:40:08;;;;;;;0.80;0.20;;;10.30;99.90;;;;;;5012172;28;20034;-43
2024/04/01 00:42:34;;;;;;;1.27;0.20;;;10.30;99.90;;;;;;5006608;28;20491;-41
2024/04/01 00:45:00;;;;;;;1.90;0.20;;;10.20;99.90;;;;;;4999699;28;20030;-41
2024/04/01 00:47:26;;;;;;;3.45;0.22;;;10.20;99.90;;;;;;4999558;28;20346;-41
2024/04/01 00:49:53;;;;;;;0.88;0.20;;;10.30;99.90;;;;;;5012009;28;20051;-41
2024/04/01 00:52:19;;;;;;;0.73;0.17;;;10.30;99.90;;;;;;5006724;28;20030;-40
2024/04/01 00:54:45;;;;;;;4.25;0.28;;;10.20;99.90;;;;;;5008554;28;20087;-41
2024/04/01 00:57:12;;;;;;;1.92;0.20;;;10.20;99.90;;;;;;5002928;28;20034;-43
2024/04/01 00:59:39;;;;;;;1.40;0.20;;;10.20;99.90;;;;;;5010664;28;20038;-45
2024/04/01 01:02:04;;;;;;;1.50;0.30;;;10.20;99.90;;;;;;5002436;28;20054;-41
2024/04/01 01:04:31;;;;;;;2.00;0.38;;;10.20;99.90;;;;;;5007896;28;20030;-43
2024/04/01 01:06:57;;;;;;;0.93;0.20;;;10.20;99.90;;;;;;5007536;28;20093;-43
2024/04/01 01:09:23;;;;;;;1.13;0.20;;;10.20;99.90;;;;;;5004934;28;20064;-41
2024/04/01 01:11:49;;;;;;;1.30;0.10;;;10.10;99.90;;;;;;5005520;28;20030;-42
2024/04/01 01:14:14;;;;;;;1.23;0.20;;;10.10;99.90;;;;;;5007853;28;20358;-44
2024/04/01 01:16:40;;;;;;;1.83;0.65;;;10.10;99.90;;;;;;5008672;28;20028;-40
2024/04/01 01:19:08;;;;;;;0.63;0.20;;;10.00;99.90;;;;;;5005954;28;20035;-42
2024/04/01 01:21:34;;;;;;;0.70;0.20;;;10.00;99.90;;;;;;5006505;28;20026;-41
2024/04/01 01:24:01;;;;;;;0.82;0.20;;;10.00;99.90;;;;;;5006443;28;20812;-41
2024/04/01 01:26:27;;;;;;;1.02;0.28;;;10.00;99.90;;;;;;5008722;28;20080;-48
2024/04/01 01:28:52;;;;;;;1.67;0.20;;;10.00;99.90;;;;;;5012494;28;20030;-44
2024/04/01 01:31:19;;;;;;;0.75;0.13;;;10.00;99.90;;;;;;5005938;28;20022;-42
2024/04/01 01:33:45;;;;;;;1.90;0.17;;;10.00;99.90;;;;;;5007979;28;20384;-43
2024/04/01 01:36:11;;;;;;;0.60;0.13;;;10.00;99.90;;;;;;5005244;28;20026;-44
2024/04/01 01:38:36;;;;;;;0.55;0.20;;;10.00;99.90;;;;;;5006050;28;20057;-42
2024/04/01 01:41:02;;;;;;;0.73;0.20;;;10.00;99.90;;;;;;5006205;28;20515;-45
2024/04/01 01:43:27;;;;;;;0.57;0.20;;;9.90;99.90;;;;;;5005356;28;20116;-46
2024/04/01 01:45:53;;;;;;;1.35;0.20;;;9.90;99.90;;;;;;5008430;28;21459;-49
2024/04/01 01:48:19;;;;;;;2.10;0.20;;;10.00;99.90;;;;;;5007512;28;20069;-45
2024/04/01 01:50:44;;;;;;;0.57;0.17;;;9.90;99.90;;;;;;5006431;28;20033;-44
2024/04/01 01:53:10;;;;;;;0.52;0.10;;;9.90;99.90;;;;;;5005459;28;20025;-45
2024/04/01 01:55:35;;;;;;;2.58;0.30;;;9.90;99.90;;;;;;5005131;28;20029;-46
2024/04/01 01:58:01;;;;;;;1.85;0.10;;;9.90;99.90;;;;;;5005087;28;20037;-42
2024/04/01 02:00:27;;;;;;;0.40;0.10;;;9.90;99.90;;;;;;5004370;28;20061;-43
2024/04/01 02:02:53;;;;;;;0.93;0.20;;;9.90;99.90;;;;;;5007247;28;20504;-43
2024/04/01 02:05:19;;;;;;;1.20;0.25;;;9.80;99.90;;;;;;5009843;28;20029;-44
2024/04/01 02:07:44;;;;;;;2.28;0.20;;;9.80;99.90;;;;;;5004641;28;20038;-41
2024/04/01 02:10:13;;;;;;;0.60;0.15;;;9.80;99.90;;;;;;5007639;28;20044;-41
2024/04/01 02:12:39;;;;;;;3.53;0.20;;;9.80;99.90;;;;;;5004885;28;20076;-41
2024/04/01 02:15:06;;;;;;;0.60;0.20;;;9.80;99.90;;;;;;5002159;28;20552;-41
2024/04/01 02:17:32;;;;;;;1.80;0.17;;;9.70;99.90;;;;;;5004607;28;20037;-46
2024/04/01 02:19:58;;;;;;;1.95;0.20;;;9.70;99.90;;;;;;5006251;28;20120;-44
2024/04/01 02:22:23;;;;;;;0.93;0.20;;;9.70;99.90;;;;;;5009197;28;20017;-43
2024/04/01 02:24:50;;;;;;;2.20;0.30;;;9.70;99.90;;;;;;5004132;28;20037;-42
2024/04/01 02:27:15;;;;;;;1.65;0.28;;;9.70;99.90;;;;;;5004692;28;20022;-40
2024/04/01 02:29:41;;;;;;;1.67;0.60;;;9.70;99.90;;;;;;5006669;28;20048;-41
2024/04/01 02:32:06;;;;;;;1.38;0.40;;;9.70;99.90;;;;;;5001983;28;20112;-44
2024/04/01 02:34:32;;;;;;;3.95;0.43;;;9.60;99.90;;;;;;5007316;28;20021;-41
2024/04/01 02:36:58;;;;;;;3.58;0.60;;;9.60;99.90;;;;;;5005811;28;20029;-41
2024/04/01 02:39:24;;;;;;;1.98;0.60;;;9.60;99.90;;;;;;5005485;28;20037;-46
2024/04/01 02:41:51;;;;;;;6.43;0.85;;;9.60;99.90;;;;;;5008604;28;20025;-41
2024/04/01 02:44:17;;;;;;;4.63;0.73;;;9.60;99.90;;;;;;5004383;28;20033;-47
2024/04/01 02:46:44;;;;;;;1.67;0.60;;;9.60;99.90;;;;;;5005102;28;20033;-41
2024/04/01 02:49:10;;;;;;;2.47;0.68;;;9.60;99.90;;;;;;5006422;28;20022;-42
2024/04/01 02:51:36;;;;;;;2.50;0.80;;;9.60;99.90;;;;;;5002913;28;20017;-42
2024/04/01 02:54:03;;;;;;;3.00;0.68;;;9.60;99.90;;;;;;5005313;28;20022;-44
2024/04/01 02:56:28;;;;;;;2.17;0.60;;;9.60;99.90;;;;;;5003626;28;20037;-42
2024/04/01 02:58:54;;;;;;;3.05;0.77;;;9.60;99.90;;;;;;5008141;28;20033;-41
2024/04/01 03:01:19;;;;;;;11.27;0.80;;;9.60;99.90;;;;;;5005877;28;20104;-43
2024/04/01 03:03:45;;;;;;;5.05;0.80;;;9.60;99.90;;;;;;5007071;28;20021;-44
2024/04/01 03:06:11;;;;;;;3.50;0.70;;;9.60;99.90;;;;;;5005115;28;20046;-44
2024/04/01 03:08:38;;;;;;;2.38;0.60;;;9.60;99.90;;;;;;5006738;28;20025;-44
2024/04/01 03:11:04;;;;;;;3.33;0.77;;;9.60;99.90;;;;;;5009082;28;20105;-44
2024/04/01 03:13:30;;;;;;;2.55;0.57;;;9.60;99.90;;;;;;5004593;28;20441;-41
2024/04/01 03:15:56;;;;;;;5.57;0.55;;;9.60;99.90;;;;;;5004186;28;20034;-41
2024/04/01 03:18:23;;;;;;;3.63;0.50;;;9.60;99.90;;;;;;5009018;28;20048;-41
2024/04/01 03:20:50;;;;;;;2.85;0.50;;;9.60;99.90;;;;;;5007745;28;20030;-41
2024/04/01 03:23:16;;;;;;;4.35;0.50;;;9.50;99.90;;;;;;5007674;28;20112;-43
2024/04/01 03:25:48;;;;;;;3.80;0.50;;;9.50;99.90;;;;;;5010276;28;20017;-43
2024/04/01 03:28:14;;;;;;;1.88;0.52;;;9.50;99.90;;;;;;5008454;28;20045;-42
2024/04/01 03:30:39;;;;;;;3.03;0.52;;;9.50;99.90;;;;;;5011244;28;20029;-40
2024/04/01 03:33:06;;;;;;;1.67;0.50;;;9.50;99.90;;;;;;5006887;28;20029;-41
2024/04/01 03:35:32;;;;;;;1.67;0.40;;;9.50;99.90;;;;;;5009951;28;20030;-43
2024/04/01 03:37:58;;;;;;;2.65;0.77;;;9.40;99.90;;;;;;5011789;28;20043;-41
2024/04/01 03:40:23;;;;;;;1.33;0.50;;;9.40;99.90;;;;;;5007533;28;20025;-45
2024/04/01 03:42:49;;;;;;;2.90;0.77;;;9.40;99.90;;;;;;5007311;28;20484;-41
2024/04/01 03:45:14;;;;;;;1.35;0.40;;;9.40;99.90;;;;;;5007844;28;20124;-42
2024/04/01 03:47:40;;;;;;;1.70;0.40;;;9.40;99.90;;;;;;5006447;28;20018;-41
2024/04/01 03:50:06;;;;;;;3.00;0.50;;;9.40;99.90;;;;;;5013126;28;20087;-41
2024/04/01 03:52:34;;;;;;;3.28;0.40;;;9.40;99.90;;;;;;5008383;28;20461;-43
2024/04/01 03:55:00;;;;;;;1.40;0.40;;;9.30;99.90;;;;;;5006878;28;20108;-41
2024/04/01 03:57:25;;;;;;;1.45;0.30;;;9.40;99.90;;;;;;5011674;28;20467;-41
2024/04/01 03:59:51;;;;;;;4.22;0.40;;;9.30;99.90;;;;;;5013127;28;20041;-42
2024/04/01 04:02:17;;;;;;;0.90;0.30;;;9.30;99.90;;;;;;5001075;28;20480;-46
2024/04/01 04:04:42;;;;;;;0.80;0.30;;;9.30;99.90;;;;;;5003866;28;20484;-42
2024/04/01 04:07:08;;;;;;;0.77;0.22;;;9.30;99.90;;;;;;5007362;28;20057;-42
2024/04/01 04:09:34;;;;;;;0.70;0.30;;;9.20;99.90;;;;;;5009561;28;20529;-41
2024/04/01 04:12:00;;;;;;;1.15;0.30;;;9.30;99.90;;;;;;5006364;28;20029;-40
2024/04/01 04:14:26;;;;;;;1.83;0.52;;;9.20;99.90;;;;;;5010321;28;20554;-41
2024/04/01 04:16:52;;;;;;;1.58;0.30;;;9.20;99.90;;;;;;5007868;28;20060;-40
2024/04/01 04:19:19;;;;;;;3.50;0.32;;;9.20;99.90;;;;;;5007889;28;20599;-41
2024/04/01 04:21:45;;;;;;;2.35;0.40;;;9.20;99.90;;;;;;5001265;28;20014;-40
2024/04/01 04:24:11;;;;;;;1.15;0.30;;;9.20;99.90;;;;;;5008243;28;20362;-45
2024/04/01 04:26:37;;;;;;;3.30;0.32;;;9.20;99.90;;;;;;5011836;28;20046;-42
2024/04/01 04:29:03;;;;;;;2.25;0.30;;;9.20;99.90;;;;;;5006625;28;20030;-42
2024/04/01 04:31:29;;;;;;;2.75;0.30;;;9.20;99.90;;;;;;5004858;28;20048;-41
2024/04/01 04:33:55;;;;;;;2.03;0.20;;;9.20;99.90;;;;;;5009574;28;20053;-41
2024/04/01 04:36:21;;;;;;;3.63;0.30;;;9.20;99.90;;;;;;5011368;28;20028;-41
2024/04/01 04:38:50;;;;;;;1.15;0.20;;;9.20;99.90;;;;;;5006379;28;20026;-42
2024/04/01 04:41:20;;;;;;;0.60;0.20;;;9.20;99.90;;;;;;5005462;28;20065;-40
2024/04/01 04:43:46;;;;;;;1.25;0.20;;;9.20;99.90;;;;;;5005587;28;20025;-41
2024/04/01 04:46:12;;;;;;;1.15;0.25;;;9.20;99.90;;;;;;5008858;28;20034;-41
2024/04/01 04:48:43;;;;;;;2.67;0.30;;;9.30;99.90;;;;;;5005663;28;20709;-42
2024/04/01 04:51:09;;;;;;;3.53;0.20;;;9.20;99.90;;;;;;5008382;28;20037;-41
2024/04/01 04:53:35;;;;;;;0.63;0.20;;;9.20;99.90;;;;;;5007280;28;20018;-40
2024/04/01 04:56:01;;;;;;;2.10;0.20;;;9.30;99.90;;;;;;5008938;28;20033;-43
2024/04/01 04:58:26;;;;;;;0.65;0.20;;;9.20;99.90;;;;;;5006804;28;20034;-43
2024/04/01 05:00:52;;;;;;;0.80;0.20;;;9.20;99.90;;;;;;5007380;28;20109;-41
2024/04/01 05:03:18;;;;;;;1.98;0.20;;;9.20;99.90;;;;;;5009204;28;20100;-41
2024/04/01 05:05:44;;;;;;;1.10;0.30;;;9.30;99.90;;;;;;5011703;28;20486;-41
2024/04/01 05:08:09;;;;;;;1.02;0.20;;;9.30;99.90;;;;;;5007403;28;20036;-41
2024/04/01 05:10:35;;;;;;;0.93;0.22;;;9.30;99.90;;;;;;5006059;28;20026;-41
2024/04/01 05:13:01;;;;;;;2.17;0.30;;;9.30;99.90;;;;;;5008974;28;20108;-40
2024/04/01 05:15:27;;;;;;;1.38;0.20;;;9.30;99.90;;;;;;5012164;28;20109;-42
2024/04/01 05:17:53;;;;;;;0.73;0.20;;;9.30;99.90;;;;;;5006236;28;20470;-40
2024/04/01 05:20:18;;;;;;;0.73;0.32;;;9.30;99.90;;;;;;5006605;28;20032;-41
2024/04/01 05:22:44;;;;;;;1.67;0.28;;;9.30;99.90;;;;;;5005132;28;20060;-41
2024/04/01 05:25:10;;;;;;;1.48;0.20;;;9.30;99.90;;;;;;5011225;28;20049;-42
2024/04/01 05:27:35;;;;;;;1.77;0.40;;;9.20;99.90;;;;;;5006530;28;20338;-41
2024/04/01 05:30:03;;;;;;;1.60;0.30;;;9.20;99.90;;;;;;5008910;28;20077;-42
2024/04/01 05:32:32;;;;;;;2.90;0.30;;;9.20;99.90;;;;;;5002964;28;20040;-41
2024/04/01 05:34:58;;;;;;;0.98;0.20;;;9.20;99.90;;;;;;4998560;28;20045;-41
2024/04/01 05:37:24;;;;;;;0.80;0.30;;;9.20;99.90;;;;;;5005746;28;20061;-41
2024/04/01 05:39:53;;;;;;;0.95;0.20;;;9.30;99.90;;;;;;5005966;28;20091;-46
2024/04/01 05:42:19;;;;;;;1.92;0.30;;;9.30;99.90;;;;;;5002665;28;20021;-45
2024/04/01 05:44:45;;;;;;;4.70;0.20;;;9.30;99.90;;;;;;5005637;28;20022;-41
2024/04/01 05:47:11;;;;;;;0.85;0.20;;;9.30;99.90;;;;;;5005965;28;20026;-44
2024/04/01 05:49:37;;;;;;;0.98;0.30;;;9.30;99.90;;;;;;5000685;28;20026;-43
2024/04/01 05:52:03;;;;;;;3.05;0.30;;;9.30;99.90;;;;;;5009532;28;20116;-47
2024/04/01 05:54:29;;;;;;;2.40;0.40;;;9.30;99.90;;;;;;5004582;28;20045;-43
2024/04/01 05:56:59;;;;;;;1.20;0.60;;;9.30;99.90;;;;;;5006678;28;20152;-43
2024/04/01 05:59:25;;;;;;;4.05;0.30;;;9.30;99.90;;;;;;5004380;28;20052;-43
2024/04/01 06:01:56;;;;;;;1.77;0.30;;;9.30;99.90;;;;;;5003686;28;20021;-42
2024/04/01 06:04:22;;;;;;;2.60;0.40;;;9.40;99.90;;;;;;5001319;28;20026;-46
2024/04/01 06:06:48;;;;;;;1.95;0.25;;;9.30;99.90;;;;;;5006801;28;20603;-40
2024/04/01 06:09:14;;;;;;;0.55;0.30;;;9.30;99.90;;;;;;5009050;28;20069;-42
2024/04/01 06:11:40;;;;;;;1.60;0.30;;;9.30;99.90;;;;;;5009490;28;20026;-40
2024/04/01 06:14:06;;;;;;;5.03;0.52;;;9.40;99.90;;;;;;5006003;28;20489;-41
2024/04/01 06:16:32;;;;;;;0.98;0.30;;;9.40;99.90;;;;;;5005512;28;20026;-45
2024/04/01 06:18:58;;;;;;;2.63;0.52;;;9.40;99.90;;;;;;5007276;28;20555;-45
2024/04/01 06:21:23;;;;;;;2.08;0.40;;;9.40;99.90;;;;;;5007168;28;20050;-42
2024/04/01 06:23:49;;;;;;;1.75;0.50;;;9.40;99.90;;;;;;5006292;28;20064;-43
2024/04/01 06:26:14;;;;;;;1.70;0.30;;;9.40;99.90;;;;;;5004282;28;20018;-42
2024/04/01 06:28:40;;;;;;;3.13;0.30;;;9.40;99.90;;;;;;5007814;28;20120;-44
2024/04/01 06:31:05;;;;;;;7.55;1.30;;;9.40;99.90;;;;;;5008426;28;20080;-43
2024/04/01 06:33:33;;;;;;;2.35;0.40;;;9.40;99.90;;;;;;5001608;28;20076;-40
2024/04/01 06:36:05;;;;;;;2.72;0.40;;;9.40;99.90;;;;;;5007336;28;20041;-45
2024/04/01 06:38:31;;;;;;;2.78;0.30;;;9.50;99.90;;;;;;5002243;28;20022;-42
2024/04/01 06:40:57;;;;;;;1.38;0.90;;;9.50;99.90;;;;;;5004370;28;20030;-42
2024/04/01 06:43:23;;;;;;;1.20;0.40;;;9.50;99.90;;;;;;5006450;28;20567;-44
2024/04/01 06:46:00;;;;;;;2.72;0.50;;;9.50;99.90;;;;;;5006799;28;20076;-41
2024/04/01 06:48:26;;;;;;;1.80;0.40;;;9.50;99.90;;;;;;5010042;28;20030;-42
2024/04/01 06:50:52;;;;;;;2.40;0.30;;;9.50;99.90;;;;;;5005362;28;20133;-45
2024/04/01 06:53:18;;;;;;;2.55;0.45;;;9.60;99.90;;;;;;5003072;28;20034;-47
2024/04/01 06:55:44;;;;;;;2.00;0.40;;;9.60;99.90;;;;;;5011126;28;20026;-43
2024/04/01 06:58:10;;;;;;;0.90;0.35;;;9.60;99.90;;;;;;5008111;28;20276;-45
2024/04/01 07:00:36;;;;;;;3.15;0.50;;;9.60;99.90;;;;;;5007692;28;20480;-41
2024/04/01 07:03:01;;;;;;;1.27;0.40;;;9.60;99.90;;;;;;5009866;28;20545;-43
2024/04/01 07:05:28;;;;;;;3.28;0.50;;;9.60;99.90;;;;;;5009170;28;20137;-41
2024/04/01 07:07:53;;;;;;;1.20;0.40;;;9.60;99.90;;;;;;5012260;28;20063;-41
2024/04/01 07:10:19;;;;;;;2.65;0.50;;;9.70;99.90;;;;;;5007714;28;20037;-40
2024/04/01 07:12:44;;;;;;;1.45;0.47;;;9.70;99.90;;;;;;5010445;28;20030;-40
2024/04/01 07:15:10;;;;;;;3.00;0.50;;;9.70;99.90;;;;;;5011901;28;20033;-40
2024/04/01 07:17:37;;;;;;;3.25;0.50;;;9.70;99.90;;;;;;5008755;28;20017;-46
2024/04/01 07:20:04;;;;;;;2.28;0.50;;;9.70;99.90;;;;;;5012692;28;20038;-41
2024/04/01 07:22:30;;;;;;;1.20;0.40;;;9.70;99.90;;;;;;5008852;28;20479;-44
2024/04/01 07:24:55;;;;;;;2.55;0.60;;;9.70;99.90;;;;;;5012194;28;20114;-42
2024/04/01 07:27:21;;;;;;;1.48;0.40;;;9.70;99.90;;;;;;5013676;28;20101;-47
2024/04/01 07:29:46;;;;;;;1.02;0.40;;;9.80;99.90;;;;;;5009475;28;20116;-44
2024/04/01 07:32:12;;;;;;;2.47;0.50;;;9.80;99.90;;;;;;5001779;28;20018;-41
2024/04/01 07:34:37;;;;;;;2.90;0.55;;;9.90;99.90;;;;;;5006420;28;20385;-43
2024/04/01 07:37:05;;;;;;;1.70;0.50;;;10.00;99.90;;;;;;5008972;28;20644;-43
2024/04/01 07:39:30;;;;;;;1.67;0.50;;;10.00;99.90;;;;;;5002425;28;20116;-43
2024/04/01 07:41:56;;;;;;;1.30;0.50;;;10.00;99.90;;;;;;5010576;28;20176;-42
2024/04/01 07:44:21;;;;;;;6.20;1.40;;;10.10;99.90;;;;;;5003932;28;20029;-42
2024/04/01 07:46:47;;;;;;;7.97;1.00;;;10.10;99.90;;;;;;5011699;28;20397;-42
2024/04/01 07:49:12;;;;;;;3.58;0.80;;;10.00;99.90;;;;;;5008290;28;20034;-42
2024/04/01 07:51:38;;;;;;;1.60;0.70;;;9.90;99.90;;;;;;5002784;28;20022;-43
2024/04/01 07:54:04;;;;;;;4.82;0.60;;;9.90;99.90;;;;;;5007016;28;20025;-42
2024/04/01 07:56:30;;;;;;;3.05;0.90;;;9.90;99.90;;;;;;5006655;28;20084;-47
2024/04/01 07:58:56;;;;;;;2.30;0.85;;;9.90;99.90;;;;;;5007726;28;20484;-44
2024/04/01 08:01:22;;;;;;;4.18;1.08;;;9.90;99.90;;;;;;5006142;28;20018;-45
2024/04/01 08:03:47;;;;;;;3.35;0.80;;;10.00;99.90;;;;;;5010385;28;20076;-47
2024/04/01 08:06:13;;;;;;;4.22;1.15;;;10.00;99.90;;;;;;5006165;28;20555;-46
2024/04/01 08:08:38;;;;;;;2.10;0.82;;;10.00;99.90;;;;;;5001673;28;20058;-44
2024/04/01 08:11:05;;;;;;;2.22;1.00;;;10.00;99.90;;;;;;5008125;28;20014;-47
2024/04/01 08:13:30;;;;;;;2.92;1.40;;;10.00;99.90;;;;;;5011019;28;20112;-45
2024/04/01 08:16:01;;;;;;;2.83;1.20;;;10.00;99.90;;;;;;5006057;28;20540;-45
2024/04/01 08:18:27;;;;;;;1.88;0.93;;;10.10;99.90;;;;;;5006397;28;20030;-50
2024/04/01 08:20:52;;;;;;;5.00;1.45;;;10.00;99.90;;;;;;5004698;28;20022;-42
2024/04/01 08:23:18;;;;;;;2.10;0.90;;;10.10;99.90;;;;;;5010022;28;20021;-43
2024/04/01 08:25:44;;;;;;;3.03;1.63;;;10.10;99.90;;;;;;5011890;28;20036;-44
2024/04/01 08:28:09;;;;;;;2.40;1.35;;;10.10;99.90;;;;;;5003029;28;20030;-42
2024/04/01 08:30:35;;;;;;;2.90;1.33;;;10.10;99.90;;;;;;5005090;28;20030;-50
2024/04/01 08:33:00;;;;;;;4.10;1.10;;;10.00;99.90;;;;;;5003398;28;20025;-43
2024/04/01 08:35:26;;;;;;;3.78;1.40;;;10.10;99.90;;;;;;5011182;28;20519;-43
2024/04/01 08:37:51;;;;;;;3.55;1.35;;;10.10;99.90;;;;;;5003557;28;20018;-47
2024/04/01 08:40:17;;;;;;;4.68;2.00;;;10.10;99.90;;;;;;5010338;28;20030;-46
2024/04/01 08:42:46;;;;;;;3.67;1.70;;;10.10;99.90;;;;;;5004380;28;20026;-43
2024/04/01 08:45:13;;;;;;;3.20;1.50;;;10.20;99.90;;;;;;4998945;28;20030;-42
2024/04/01 08:47:43;;;;;;;5.05;1.05;;;10.20;99.90;;;;;;5006137;28;20029;-43
2024/04/01 08:50:20;;;;;;;2.28;0.93;;;10.30;99.90;;;;;;5003705;28;20037;-41
2024/04/01 08:53:07;;;;;;;2.97;1.10;;;10.30;99.90;;;;;;5002543;28;20026;-40
2024/04/01 08:55:34;;;;;;;2.33;0.90;;;10.30;99.90;;;;;;5007199;28;20030;-43
2024/04/01 08:58:00;;;;;;;5.28;1.48;;;10.30;99.90;;;;;;5008492;28;20018;-45
2024/04/01 09:00:26;;;;;;;3.53;0.80;;;10.20;99.90;;;;;;5001716;28;20446;-42
2024/04/01 09:02:51;;;;;;;4.47;0.90;;;10.20;99.90;;;;;;5006125;28;20080;-42
2024/04/01 09:05:17;;;;;;;5.03;1.33;;;10.20;99.90;;;;;;5002137;28;20034;-44
2024/04/01 09:07:42;;;;;;;3.50;1.23;;;10.20;99.90;;;;;;5004901;28;20859;-41
2024/04/01 09:10:08;;;;;;;2.85;1.20;;;10.20;99.90;;;;;;5006069;28;20465;-42
2024/04/01 09:12:34;;;;;;;4.85;1.33;;;10.20;99.90;;;;;;5000536;28;20124;-43
2024/04/01 09:15:00;;;;;;;4.53;1.33;;;10.20;99.90;;;;;;5000203;28;20087;-42
2024/04/01 09:17:26;;;;;;;7.22;1.30;;;10.20;99.90;;;;;;5000045;28;20058;-41
2024/04/01 09:19:52;;;;;;;14.35;1.67;;;10.10;99.90;;;;;;5011019;28;20041;-43
2024/04/01 09:22:17;;;;;;;4.35;1.90;;;10.10;99.90;;;;;;5002264;28;20029;-43
2024/04/01 09:24:45;;;;;;;5.63;1.55;;;10.10;99.90;;;;;;5008004;28;20030;-46
2024/04/01 09:27:10;;;;;;;6.95;2.22;;;10.10;99.90;;;;;;5003868;28;20104;-42
2024/04/01 09:29:36;;;;;;;3.63;1.23;;;10.10;99.90;;;;;;4998935;28;20524;-41
2024/04/01 09:32:02;;;;;;;2.25;1.00;;;10.20;99.90;;;;;;5000692;28;20358;-41
2024/04/01 09:34:29;;;;;;;4.65;1.98;;;10.50;99.90;;;;;;5007157;28;20040;-41
2024/04/01 09:36:55;;;;;;;5.60;2.22;;;10.70;99.90;;;;;;5005014;28;20057;-41
2024/04/01 09:39:21;;;;;;;10.10;2.55;;;10.80;99.90;;;;;;5004298;28;20583;-44
2024/04/01 09:41:48;;;;;;;7.72;1.90;;;10.70;99.90;;;;;;5004851;28;20049;-44
2024/04/01 09:44:13;;;;;;;6.88;2.50;;;10.60;99.90;;;;;;5006750;28;20030;-42
2024/04/01 09:46:39;;;;;;;4.82;1.90;;;10.50;99.90;;;;;;5005060;28;20041;-42
2024/04/01 09:49:05;;;;;;;4.63;2.20;;;10.50;99.90;;;;;;5011047;28;20032;-42
2024/04/01 09:51:32;;;;;;;5.65;1.95;;;10.50;99.90;;;;;;5002792;28;20060;-46
2024/04/01 09:53:57;;;;;;;4.63;2.30;;;10.40;99.90;;;;;;4997433;28;20038;-45
2024/04/01 09:56:23;;;;;;;4.03;2.20;;;10.40;99.90;;;;;;5008857;28;20110;-44
2024/04/01 09:59:07;;;;;;;4.22;2.13;;;10.40;99.90;;;;;;5008886;28;20030;-42
2024/04/01 10:01:59;;;;;;;;;;;10.50;99.90;;;;;;5001688;28;20022;-44
2024/04/01 10:05:02;;;;;;;5.50;2.55;;;10.50;99.90;;;;;;5008213;28;19905;-44
2024/04/01 10:07:49;;;;;;;6.28;2.70;;;10.50;99.90;;;;;;4998603;28;20057;-43
2024/04/01 10:10:21;;;;;;;6.95;2.65;;;10.50;99.90;;;;;;5005652;28;20084;-42
2024/04/01 10:13:24;;;;;;;8.02;2.92;;;10.40;99.90;;;;;;5007263;28;20044;-42
2024/04/01 10:16:14;;;;;;;11.48;2.55;;;10.40;99.90;;;;;;5004772;28;20187;-42
2024/04/01 10:18:59;;;;;;;8.23;3.90;;;10.40;99.90;;;;;;4999643;28;20119;-42
2024/04/01 10:22:01;;;;;;;3.75;2.10;;;10.40;99.90;;;;;;5004545;28;20033;-42
2024/04/01 10:24:52;;;;;;;5.03;2.20;;;10.40;99.90;;;;;;4998297;28;20088;-42
2024/04/01 10:27:51;;;;;;;5.20;2.30;;;10.40;99.90;;;;;;4997489;28;20045;-42
2024/04/01 10:30:33;;;;;;;6.00;2.47;;;10.40;99.90;;;;;;4998909;28;20064;-42
2024/04/01 10:33:16;;;;;;;7.50;2.60;;;10.40;99.90;;;;;;4997880;28;20026;-46
2024/04/01 10:36:10;;;;;;;3.70;2.20;;;10.40;99.90;;;;;;5008838;28;20755;-43
2024/04/01 10:39:04;;;;;;;5.15;2.47;;;10.40;99.90;;;;;;5003517;28;20037;-43
2024/04/01 10:41:48;;;;;;;4.03;2.53;;;10.40;99.90;;;;;;5006365;28;20030;-44
2024/04/01 10:44:57;;;;;;;5.18;2.03;;;10.40;99.90;;;;;;5008459;28;20102;-44
2024/04/01 10:47:55;;;;;;;6.32;2.08;;;10.50;99.90;;;;;;5002550;28;20555;-42
2024/04/01 10:50:41;;;;;;;10.38;3.05;;;10.60;99.90;;;;;;5006191;28;20202;-42
2024/04/01 10:53:38;;;;;;;5.05;2.05;;;10.60;99.90;;;;;;5008169;28;20026;-43
2024/04/01 10:56:38;;;;;;;7.93;2.50;;;10.60;99.90;;;;;;5003445;28;20037;-48
2024/04/01 10:59:33;;;;;;;6.20;2.15;;;10.60;99.90;;;;;;5002359;28;20026;-43
2024/04/01 11:02:18;;;;;;;8.23;3.15;;;10.70;99.90;;;;;;5007468;28;20073;-42
2024/04/01 11:05:30;;;;;;;6.00;1.70;;;10.70;99.90;;;;;;5003233;28;20080;-42
2024/04/01 11:08:26;;;;;;;7.72;1.77;;;10.80;99.90;;;;;;5005471;28;20061;-45
2024/04/01 11:11:25;;;;;;;7.88;1.77;;;10.80;99.90;;;;;;5008336;28;20120;-44
2024/04/01 11:13:51;;;;;;;7.63;1.77;;;11.00;99.90;;;;;;5008920;28;20092;-43
2024/04/01 11:16:19;;;;;;;3.50;1.65;;;11.00;99.90;;;;;;5003231;28;20024;-43
2024/04/01 11:19:15;;;;;;;5.35;1.50;;;11.10;99.90;;;;;;5003950;28;20045;-42
2024/04/01 11:22:36;;;;;;;7.40;1.45;;;11.10;99.90;;;;;;4996173;28;20062;-43
2024/04/01 11:25:23;;;;;;;4.43;1.40;;;11.20;99.90;;;;;;4910985;29;20043;-46
2024/04/01 11:28:10;;;;;;;7.55;1.20;;;11.30;99.90;;;;;;5000384;28;20025;-43
2024/04/01 11:30:36;;;;;;;4.82;2.30;;;11.30;99.90;;;;;;5001299;28;20432;-42
2024/04/01 11:33:08;;;;;;;4.43;0.70;;;11.30;99.90;;;;;;5009266;28;20130;-43
2024/04/01 11:35:47;;;;;;;6.95;0.95;;;11.40;99.90;;;;;;5002075;28;20444;-47
2024/04/01 11:38:38;;;;;;;1.75;0.65;;;11.50;99.90;;;;;;4998391;28;20026;-42
2024/04/01 11:41:08;;;;;;;5.47;0.80;;;11.60;99.90;;;;;;5009655;28;20042;-46
2024/04/01 11:43:35;;;;;;;2.58;0.55;;;11.80;99.90;;;;;;5005495;28;20021;-45
2024/04/01 11:46:02;;;;;;;3.53;1.00;;;11.90;99.90;;;;;;4997283;28;20481;-44
2024/04/01 11:48:28;;;;;;;3.05;0.52;;;11.90;99.90;;;;;;5005639;28;20510;-49
2024/04/01 11:50:55;;;;;;;3.22;1.30;;;12.00;99.90;;;;;;4999871;28;20026;-47
2024/04/01 11:53:24;;;;;;;2.20;0.47;;;12.00;99.90;;;;;;5005190;28;20034;-49
2024/04/01 11:55:54;;;;;;;4.90;0.50;;;12.10;99.90;;;;;;5010316;28;20029;-48
2024/04/01 11:58:20;;;;;;;2.92;0.50;;;12.10;99.90;;;;;;5007677;28;20033;-47
2024/04/01 12:00:53;;;;;;;10.32;0.50;;;12.10;99.90;;;;;;5006045;28;20065;-46
2024/04/01 12:03:21;;;;;;;3.03;0.40;;;12.20;99.90;;;;;;5006728;28;20489;-46
2024/04/01 12:05:49;;;;;;;1.67;0.50;;;12.20;99.90;;;;;;5009375;28;20381;-47
2024/04/01 12:08:19;;;;;;;4.10;0.55;;;12.20;99.90;;;;;;5009031;28;20420;-49
2024/04/01 12:10:46;;;;;;;2.65;0.43;;;12.30;99.90;;;;;;5004409;28;20018;-48
2024/04/01 12:13:13;;;;;;;1.80;0.55;;;12.30;99.90;;;;;;5002094;28;20029;-47
2024/04/01 12:15:41;;;;;;;2.90;0.63;;;12.30;99.90;;;;;;5007003;28;20648;-44
2024/04/01 12:18:08;;;;;;;2.60;0.50;;;12.40;99.90;;;;;;4998809;28;20485;-47
2024/04/01 12:20:37;;;;;;;2.42;0.52;;;12.40;99.90;;;;;;5004655;28;20477;-43
2024/04/01 12:23:09;;;;;;;1.80;0.40;;;12.30;99.90;;;;;;5008747;28;20026;-46
2024/04/01 12:25:35;;;;;;;5.67;0.40;;;12.30;99.90;;;;;;5010101;28;20500;-43
2024/04/01 12:28:08;;;;;;;5.93;0.60;;;12.30;99.90;;;;;;5005727;28;20284;-42
2024/04/01 12:30:40;;;;;;;3.00;0.40;;;12.40;99.90;;;;;;5007541;28;20648;-47
2024/04/01 12:33:06;;;;;;;1.33;0.40;;;12.40;99.90;;;;;;5001793;28;20117;-47
2024/04/01 12:35:34;;;;;;;2.70;0.30;;;12.40;99.90;;;;;;5000766;28;20120;-51
2024/04/01 12:38:05;;;;;;;1.48;0.40;;;12.40;99.90;;;;;;5002284;28;20559;-42
2024/04/01 12:40:45;;;;;;;2.80;0.40;;;12.40;99.90;;;;;;5001085;28;20046;-43
2024/04/01 12:43:21;;;;;;;2.28;0.40;;;12.40;99.90;;;;;;5004462;28;20040;-45
2024/04/01 12:45:50;;;;;;;5.53;0.50;;;12.40;99.90;;;;;;4997262;28;20034;-46
2024/04/01 12:48:17;;;;;;;2.28;0.22;;;12.40;99.90;;;;;;5012152;28;20036;-47
2024/04/01 12:50:45;;;;;;;1.27;0.50;;;12.40;99.90;;;;;;4999714;28;20105;-43
2024/04/01 12:53:40;;;;;;;3.35;0.40;;;12.40;99.90;;;;;;4998741;28;20050;-45
2024/04/01 12:56:20;;;;;;;1.88;0.40;;;12.50;99.90;;;;;;5006400;28;20030;-49
2024/04/01 12:59:04;;;;;;;2.80;0.30;;;12.60;99.90;;;;;;5005666;28;20037;-47
2024/04/01 13:01:53;;;;;;;2.35;0.30;;;12.60;99.90;;;;;;5003245;28;20079;-43
2024/04/01 13:04:50;;;;;;;4.07;0.40;;;12.60;99.90;;;;;;4999585;28;20060;-48